createdAt,value
2016-05-27T00:00:44.637Z,0
2016-05-27T00:01:44.483Z,0
2016-05-27T00:02:44.361Z,0
2016-05-27T00:03:45.161Z,0
2016-05-27T00:04:44.648Z,0
2016-05-27T00:05:44.494Z,0
2016-05-27T00:06:44.497Z,0
2016-05-27T00:07:44.656Z,0
2016-05-27T00:08:44.486Z,0
2016-05-27T00:09:44.724Z,0
2016-05-27T00:10:44.648Z,0
2016-05-27T00:11:44.650Z,0
2016-05-27T00:12:44.200Z,0
2016-05-27T00:13:44.671Z,0
2016-05-27T00:14:44.519Z,0
2016-05-27T00:15:44.521Z,0
2016-05-27T00:16:44.663Z,0
2016-05-27T00:17:44.682Z,0
2016-05-27T00:18:44.998Z,0
2016-05-27T00:19:44.688Z,0
2016-05-27T00:20:44.519Z,0
2016-05-27T00:21:44.677Z,0
2016-05-27T00:22:44.679Z,0
2016-05-27T00:23:44.526Z,0
2016-05-27T00:24:44.515Z,0
2016-05-27T00:25:44.532Z,0
2016-05-27T00:26:44.691Z,0
2016-05-27T00:27:44.693Z,0
2016-05-27T00:28:44.681Z,0
2016-05-27T00:29:44.683Z,0
2016-05-27T00:30:44.701Z,0
2016-05-27T00:31:44.689Z,0
2016-05-27T00:32:44.692Z,0
2016-05-27T00:33:44.756Z,0
2016-05-27T00:34:44.400Z,0
2016-05-27T00:35:44.699Z,0
2016-05-27T00:36:44.405Z,0
2016-05-27T00:37:44.549Z,0
2016-05-27T00:38:44.552Z,0
2016-05-27T00:39:44.694Z,0
2016-05-27T00:40:44.713Z,0
2016-05-27T00:41:44.700Z,0
2016-05-27T00:42:44.546Z,0
2016-05-27T00:43:44.565Z,0
2016-05-27T00:44:44.724Z,0
2016-05-27T00:45:44.696Z,0
2016-05-27T00:46:44.557Z,0
2016-05-27T00:47:44.732Z,0
2016-05-27T00:48:45.234Z,0
2016-05-27T00:49:44.738Z,0
2016-05-27T00:50:44.724Z,0
2016-05-27T00:51:44.555Z,0
2016-05-27T00:52:44.745Z,0
2016-05-27T00:53:44.732Z,0
2016-05-27T00:54:44.579Z,0
2016-05-27T00:55:44.597Z,0
2016-05-27T00:56:44.740Z,0
2016-05-27T00:57:44.571Z,0
2016-05-27T00:58:44.730Z,0
2016-05-27T00:59:44.593Z,0
2016-05-27T01:00:44.736Z,0
2016-05-27T01:01:44.863Z,0
2016-05-27T01:02:44.585Z,0
2016-05-27T01:03:45.306Z,0
2016-05-27T01:04:44.747Z,0
2016-05-27T01:05:44.577Z,0
2016-05-27T01:06:44.752Z,0
2016-05-27T01:07:44.755Z,0
2016-05-27T01:08:44.757Z,0
2016-05-27T01:09:44.744Z,0
2016-05-27T01:10:44.746Z,0
2016-05-27T01:11:44.593Z,0
2016-05-27T01:12:44.752Z,0
2016-05-27T01:13:44.599Z,0
2016-05-27T01:14:44.758Z,0
2016-05-27T01:15:44.604Z,0
2016-05-27T01:16:44.763Z,0
2016-05-27T01:17:44.610Z,0
2016-05-27T01:18:45.175Z,0
2016-05-27T01:19:44.630Z,0
2016-05-27T01:20:44.774Z,0
2016-05-27T01:21:44.760Z,0
2016-05-27T01:22:44.764Z,0
2016-05-27T01:23:44.453Z,0
2016-05-27T01:24:44.784Z,0
2016-05-27T01:25:44.615Z,0
2016-05-27T01:26:44.618Z,0
2016-05-27T01:27:44.621Z,0
2016-05-27T01:28:44.640Z,0
2016-05-27T01:29:44.782Z,0
2016-05-27T01:30:44.785Z,0
2016-05-27T01:31:44.787Z,0
2016-05-27T01:32:44.790Z,0
2016-05-27T01:33:45.043Z,0
2016-05-27T01:34:44.781Z,0
2016-05-27T01:35:44.830Z,0
2016-05-27T01:36:44.785Z,0
2016-05-27T01:37:44.789Z,0
2016-05-27T01:38:44.806Z,0
2016-05-27T01:39:44.622Z,0
2016-05-27T01:40:44.796Z,0
2016-05-27T01:41:44.799Z,0
2016-05-27T01:42:44.817Z,0
2016-05-27T01:43:44.648Z,0
2016-05-27T01:44:44.650Z,0
2016-05-27T01:45:44.794Z,0
2016-05-27T01:46:44.813Z,0
2016-05-27T01:47:44.799Z,0
2016-05-27T01:48:44.693Z,0
2016-05-27T01:49:44.807Z,0
2016-05-27T01:50:44.845Z,0
2016-05-27T01:51:44.851Z,0
2016-05-27T01:52:44.873Z,0
2016-05-27T01:53:44.895Z,0
2016-05-27T01:54:44.899Z,0
2016-05-27T01:55:44.941Z,0
2016-05-27T01:56:44.778Z,0
2016-05-27T01:57:44.772Z,0
2016-05-27T01:58:44.970Z,0
2016-05-27T01:59:44.946Z,0
2016-05-27T02:00:44.952Z,0
2016-05-27T02:01:44.958Z,0
2016-05-27T02:02:44.962Z,0
2016-05-27T02:03:46.250Z,0
2016-05-27T02:04:44.973Z,0
2016-05-27T02:05:44.976Z,0
2016-05-27T02:06:44.980Z,0
2016-05-27T02:07:44.828Z,0
2016-05-27T02:08:44.676Z,0
2016-05-27T02:09:44.850Z,0
2016-05-27T02:10:44.994Z,0
2016-05-27T02:11:44.981Z,0
2016-05-27T02:12:44.985Z,0
2016-05-27T02:13:45.003Z,0
2016-05-27T02:14:44.849Z,0
2016-05-27T02:15:44.852Z,0
2016-05-27T02:16:44.996Z,0
2016-05-27T02:17:44.983Z,0
2016-05-27T02:18:45.330Z,0
2016-05-27T02:19:45.020Z,0
2016-05-27T02:20:44.991Z,0
2016-05-27T02:21:44.993Z,0
2016-05-27T02:22:44.840Z,0
2016-05-27T02:23:44.999Z,0
2016-05-27T02:24:44.846Z,0
2016-05-27T02:25:44.848Z,0
2016-05-27T02:26:45.038Z,0
2016-05-27T02:27:45.009Z,0
2016-05-27T02:28:44.856Z,0
2016-05-27T02:29:44.859Z,0
2016-05-27T02:30:44.846Z,0
2016-05-27T02:31:45.020Z,0
2016-05-27T02:32:45.008Z,0
2016-05-27T02:33:45.478Z,0
2016-05-27T02:34:45.014Z,0
2016-05-27T02:35:45.016Z,0
2016-05-27T02:36:44.862Z,0
2016-05-27T02:37:45.021Z,0
2016-05-27T02:38:45.025Z,0
2016-05-27T02:39:45.011Z,0
2016-05-27T02:40:44.997Z,0
2016-05-27T02:41:45.016Z,0
2016-05-27T02:42:45.035Z,0
2016-05-27T02:43:45.022Z,0
2016-05-27T02:44:45.041Z,0
2016-05-27T02:45:45.043Z,0
2016-05-27T02:46:44.857Z,0
2016-05-27T02:47:45.032Z,0
2016-05-27T02:48:45.582Z,0
2016-05-27T02:49:44.866Z,0
2016-05-27T02:50:45.025Z,0
2016-05-27T02:51:45.043Z,0
2016-05-27T02:52:45.030Z,0
2016-05-27T02:53:44.877Z,0
2016-05-27T02:54:45.035Z,0
2016-05-27T02:55:45.054Z,0
2016-05-27T02:56:45.041Z,0
2016-05-27T02:57:45.043Z,0
2016-05-27T02:58:45.062Z,0
2016-05-27T02:59:44.877Z,0
2016-05-27T03:00:44.912Z,0
2016-05-27T03:01:45.071Z,0
2016-05-27T03:02:45.042Z,0
2016-05-27T03:03:44.810Z,0
2016-05-27T03:04:44.890Z,0
2016-05-27T03:05:44.893Z,0
2016-05-27T03:06:45.053Z,0
2016-05-27T03:07:44.915Z,0
2016-05-27T03:08:45.042Z,0
2016-05-27T03:09:44.904Z,0
2016-05-27T03:10:45.048Z,0
2016-05-27T03:11:44.909Z,0
2016-05-27T03:12:45.069Z,0
2016-05-27T03:13:45.055Z,0
2016-05-27T03:14:45.043Z,0
2016-05-27T03:15:45.092Z,0
2016-05-27T03:16:44.923Z,0
2016-05-27T03:17:44.910Z,0
2016-05-27T03:18:45.600Z,0
2016-05-27T03:19:45.072Z,0
2016-05-27T03:20:45.059Z,0
2016-05-27T03:21:45.077Z,0
2016-05-27T03:22:44.908Z,0
2016-05-27T03:23:44.927Z,0
2016-05-27T03:24:45.085Z,0
2016-05-27T03:25:45.088Z,0
2016-05-27T03:26:44.934Z,0
2016-05-27T03:27:44.921Z,0
2016-05-27T03:28:45.080Z,0
2016-05-27T03:29:44.927Z,0
2016-05-27T03:30:45.085Z,0
2016-05-27T03:31:45.088Z,0
2016-05-27T03:32:45.076Z,0
2016-05-27T03:33:44.968Z,0
2016-05-27T03:34:45.081Z,0
2016-05-27T03:35:45.084Z,0
2016-05-27T03:36:45.086Z,0
2016-05-27T03:37:44.933Z,0
2016-05-27T03:38:44.936Z,0
2016-05-27T03:39:44.938Z,0
2016-05-27T03:40:44.925Z,0
2016-05-27T03:41:45.084Z,0
2016-05-27T03:42:45.103Z,0
2016-05-27T03:43:45.105Z,0
2016-05-27T03:44:44.967Z,0
2016-05-27T03:45:45.095Z,0
2016-05-27T03:46:45.097Z,0
2016-05-27T03:47:45.100Z,0
2016-05-27T03:48:45.369Z,0
2016-05-27T03:49:45.136Z,0
2016-05-27T03:50:45.108Z,5
2016-05-27T03:51:45.111Z,5
2016-05-27T03:52:45.113Z,5
2016-05-27T03:53:45.101Z,5
2016-05-27T03:54:44.947Z,5
2016-05-27T03:55:45.121Z,5
2016-05-27T03:56:45.124Z,5
2016-05-27T03:57:44.987Z,5
2016-05-27T03:58:45.114Z,5
2016-05-27T03:59:45.132Z,5
2016-05-27T04:00:45.120Z,5
2016-05-27T04:01:44.965Z,5
2016-05-27T04:02:45.109Z,5
2016-05-27T04:03:45.799Z,5
2016-05-27T04:04:44.959Z,5
2016-05-27T04:05:45.117Z,10
2016-05-27T04:06:45.136Z,10
2016-05-27T04:07:45.123Z,10
2016-05-27T04:08:45.109Z,10
2016-05-27T04:09:45.112Z,10
2016-05-27T04:10:45.162Z,10
2016-05-27T04:11:45.118Z,10
2016-05-27T04:12:45.120Z,15
2016-05-27T04:13:44.826Z,10
2016-05-27T04:14:44.985Z,10
2016-05-27T04:15:45.128Z,10
2016-05-27T04:16:45.163Z,15
2016-05-27T04:17:45.134Z,15
2016-05-27T04:18:45.605Z,15
2016-05-27T04:19:44.967Z,10
2016-05-27T04:20:44.830Z,15
2016-05-27T04:21:44.988Z,15
2016-05-27T04:22:44.991Z,15
2016-05-27T04:23:45.135Z,15
2016-05-27T04:24:45.168Z,15
2016-05-27T04:25:44.984Z,15
2016-05-27T04:26:45.143Z,15
2016-05-27T04:27:45.145Z,15
2016-05-27T04:28:44.991Z,15
2016-05-27T04:29:44.994Z,20
2016-05-27T04:30:45.153Z,20
2016-05-27T04:31:45.156Z,20
2016-05-27T04:32:45.002Z,20
2016-05-27T04:33:45.083Z,25
2016-05-27T04:34:45.007Z,25
2016-05-27T04:35:45.010Z,25
2016-05-27T04:36:45.153Z,25
2016-05-27T04:37:45.156Z,25
2016-05-27T04:38:45.034Z,25
2016-05-27T04:39:45.178Z,25
2016-05-27T04:40:45.008Z,25
2016-05-27T04:41:45.167Z,25
2016-05-27T04:42:45.154Z,25
2016-05-27T04:43:45.032Z,25
2016-05-27T04:44:45.019Z,30
2016-05-27T04:45:45.194Z,30
2016-05-27T04:46:45.181Z,35
2016-05-27T04:47:45.167Z,35
2016-05-27T04:48:45.155Z,40
2016-05-27T04:49:45.016Z,40
2016-05-27T04:50:45.175Z,45
2016-05-27T04:51:45.178Z,50
2016-05-27T04:52:45.166Z,50
2016-05-27T04:53:45.183Z,55
2016-05-27T04:54:45.202Z,60
2016-05-27T04:55:45.174Z,60
2016-05-27T04:56:45.176Z,60
2016-05-27T04:57:45.179Z,65
2016-05-27T04:58:45.166Z,65
2016-05-27T04:59:45.044Z,65
2016-05-27T05:00:45.187Z,65
2016-05-27T05:01:45.174Z,65
2016-05-27T05:02:45.207Z,65
2016-05-27T05:03:45.445Z,65
2016-05-27T05:04:45.198Z,65
2016-05-27T05:05:45.184Z,60
2016-05-27T05:06:45.203Z,60
2016-05-27T05:07:44.893Z,65
2016-05-27T05:08:45.193Z,65
2016-05-27T05:09:45.055Z,65
2016-05-27T05:10:45.198Z,65
2016-05-27T05:11:45.217Z,65
2016-05-27T05:12:45.064Z,70
2016-05-27T05:13:45.207Z,70
2016-05-27T05:14:45.053Z,70
2016-05-27T05:15:45.212Z,70
2016-05-27T05:16:45.230Z,70
2016-05-27T05:17:45.061Z,70
2016-05-27T05:18:45.470Z,70
2016-05-27T05:19:45.222Z,70
2016-05-27T05:20:45.053Z,70
2016-05-27T05:21:45.212Z,70
2016-05-27T05:22:45.230Z,75
2016-05-27T05:23:45.093Z,75
2016-05-27T05:24:45.221Z,75
2016-05-27T05:25:45.082Z,75
2016-05-27T05:26:45.069Z,80
2016-05-27T05:27:45.229Z,75
2016-05-27T05:28:45.232Z,80
2016-05-27T05:29:45.078Z,80
2016-05-27T05:30:45.220Z,80
2016-05-27T05:31:45.224Z,80
2016-05-27T05:32:45.243Z,85
2016-05-27T05:33:46.510Z,85
2016-05-27T05:34:45.248Z,90
2016-05-27T05:35:45.094Z,90
2016-05-27T05:36:45.237Z,95
2016-05-27T05:37:45.256Z,95
2016-05-27T05:38:45.243Z,95
2016-05-27T05:39:45.245Z,100
2016-05-27T05:40:45.248Z,105
2016-05-27T05:41:44.937Z,110
2016-05-27T05:42:45.098Z,120
2016-05-27T05:43:45.256Z,125
2016-05-27T05:44:45.117Z,125
2016-05-27T05:45:45.261Z,125
2016-05-27T05:46:45.264Z,125
2016-05-27T05:47:45.250Z,130
2016-05-27T05:48:45.925Z,135
2016-05-27T05:49:45.272Z,140
2016-05-27T05:50:45.291Z,175
2016-05-27T05:51:45.261Z,165
2016-05-27T05:52:45.280Z,155
2016-05-27T05:53:45.282Z,160
2016-05-27T05:54:45.270Z,170
2016-05-27T05:55:45.272Z,170
2016-05-27T05:56:44.978Z,175
2016-05-27T05:57:45.277Z,185
2016-05-27T05:58:45.296Z,230
2016-05-27T05:59:45.127Z,205
2016-05-27T06:00:45.271Z,200
2016-05-27T06:01:45.149Z,205
2016-05-27T06:02:45.291Z,195
2016-05-27T06:03:46.232Z,210
2016-05-27T06:04:45.453Z,240
2016-05-27T06:05:45.299Z,405
2016-05-27T06:06:45.146Z,425
2016-05-27T06:07:47.415Z,340
2016-05-27T06:08:45.323Z,240
2016-05-27T06:09:45.310Z,240
2016-05-27T06:10:45.157Z,300
2016-05-27T06:11:45.159Z,255
2016-05-27T06:12:48.208Z,300
2016-05-27T06:13:45.306Z,345
2016-05-27T06:14:45.339Z,430
2016-05-27T06:15:45.326Z,395
2016-05-27T06:16:45.328Z,505
2016-05-27T06:17:47.067Z,545
2016-05-27T06:18:45.491Z,535
2016-05-27T06:19:45.664Z,490
2016-05-27T06:20:45.356Z,490
2016-05-27T06:21:45.358Z,425
2016-05-27T06:22:50.455Z,415
2016-05-27T06:23:45.347Z,345
2016-05-27T06:24:45.210Z,370
2016-05-27T06:25:45.353Z,490
2016-05-27T06:26:45.215Z,525
2016-05-27T06:27:44.905Z,395
2016-05-27T06:28:45.064Z,395
2016-05-27T06:29:45.380Z,315
2016-05-27T06:30:45.382Z,295
2016-05-27T06:31:45.229Z,285
2016-05-27T06:32:45.232Z,305
2016-05-27T06:33:45.421Z,320
2016-05-27T06:34:45.393Z,310
2016-05-27T06:35:45.240Z,290
2016-05-27T06:36:45.257Z,275
2016-05-27T06:37:45.401Z,265
2016-05-27T06:38:45.248Z,250
2016-05-27T06:39:45.422Z,240
2016-05-27T06:40:45.426Z,245
2016-05-27T06:41:45.443Z,235
2016-05-27T06:42:45.289Z,245
2016-05-27T06:43:45.434Z,250
2016-05-27T06:44:45.295Z,270
2016-05-27T06:45:45.453Z,305
2016-05-27T06:46:45.456Z,275
2016-05-27T06:47:45.459Z,430
2016-05-27T06:48:45.275Z,250
2016-05-27T06:49:46.449Z,230
2016-05-27T06:50:45.467Z,340
2016-05-27T06:51:45.486Z,470
2016-05-27T06:52:45.503Z,250
2016-05-27T06:53:45.522Z,510
2016-05-27T06:54:45.338Z,225
2016-05-27T06:55:45.355Z,225
2016-05-27T06:56:45.515Z,475
2016-05-27T06:57:45.502Z,615
2016-05-27T06:58:45.505Z,330
2016-05-27T06:59:45.522Z,260
2016-05-27T07:00:45.524Z,350
2016-05-27T07:01:45.513Z,365
2016-05-27T07:02:45.516Z,310
2016-05-27T07:03:46.737Z,450
2016-05-27T07:04:50.082Z,545
2016-05-27T07:05:45.539Z,310
2016-05-27T07:06:45.557Z,680
2016-05-27T07:07:45.418Z,450
2016-05-27T07:08:45.563Z,685
2016-05-27T07:09:45.565Z,715
2016-05-27T07:10:45.568Z,900
2016-05-27T07:11:45.570Z,380
2016-05-27T07:12:45.448Z,740
2016-05-27T07:13:45.451Z,380
2016-05-27T07:14:45.578Z,315
2016-05-27T07:15:45.581Z,300
2016-05-27T07:16:45.443Z,265
2016-05-27T07:17:45.836Z,275
2016-05-27T07:18:45.824Z,250
2016-05-27T07:19:45.873Z,255
2016-05-27T07:20:45.626Z,255
2016-05-27T07:21:45.488Z,330
2016-05-27T07:22:45.617Z,225
2016-05-27T07:23:45.634Z,215
2016-05-27T07:24:46.839Z,240
2016-05-27T07:25:45.655Z,205
2016-05-27T07:26:45.486Z,200
2016-05-27T07:27:45.489Z,200
2016-05-27T07:28:45.663Z,195
2016-05-27T07:29:45.666Z,190
2016-05-27T07:30:45.669Z,185
2016-05-27T07:31:45.672Z,185
2016-05-27T07:32:45.377Z,185
2016-05-27T07:33:45.582Z,170
2016-05-27T07:34:45.696Z,160
2016-05-27T07:35:45.541Z,160
2016-05-27T07:36:45.701Z,150
2016-05-27T07:37:45.704Z,145
2016-05-27T07:38:45.549Z,145
2016-05-27T07:39:45.567Z,145
2016-05-27T07:40:45.571Z,145
2016-05-27T07:41:45.714Z,160
2016-05-27T07:42:45.732Z,170
2016-05-27T07:43:45.750Z,185
2016-05-27T07:44:45.613Z,180
2016-05-27T07:45:45.739Z,180
2016-05-27T07:46:45.587Z,175
2016-05-27T07:47:45.434Z,175
2016-05-27T07:48:45.889Z,175
2016-05-27T07:49:45.781Z,175
2016-05-27T07:50:45.614Z,170
2016-05-27T07:51:45.772Z,180
2016-05-27T07:52:45.774Z,180
2016-05-27T07:53:45.777Z,180
2016-05-27T07:54:45.858Z,205
2016-05-27T07:55:45.782Z,245
2016-05-27T07:56:45.332Z,295
2016-05-27T07:57:45.803Z,310
2016-05-27T07:58:45.650Z,580
2016-05-27T07:59:48.246Z,520
2016-05-27T08:00:45.672Z,480
2016-05-27T08:01:45.658Z,425
2016-05-27T08:02:45.660Z,530
2016-05-27T08:03:45.819Z,595
2016-05-27T08:04:45.557Z,465
2016-05-27T08:05:45.685Z,460
2016-05-27T08:06:45.843Z,530
2016-05-27T08:07:45.674Z,590
2016-05-27T08:08:45.848Z,385
2016-05-27T08:09:46.008Z,430
2016-05-27T08:10:45.698Z,460
2016-05-27T08:11:45.873Z,610
2016-05-27T08:12:45.718Z,420
2016-05-27T08:13:45.863Z,405
2016-05-27T08:14:45.881Z,440
2016-05-27T08:15:45.743Z,315
2016-05-27T08:16:45.886Z,300
2016-05-27T08:17:45.748Z,295
2016-05-27T08:18:45.767Z,310
2016-05-27T08:19:45.816Z,325
2016-05-27T08:20:45.928Z,310
2016-05-27T08:21:45.775Z,310
2016-05-27T08:22:45.933Z,285
2016-05-27T08:23:45.953Z,285
2016-05-27T08:24:45.939Z,300
2016-05-27T08:25:45.941Z,295
2016-05-27T08:26:45.944Z,310
2016-05-27T08:27:45.806Z,330
2016-05-27T08:28:45.950Z,320
2016-05-27T08:29:46.546Z,325
2016-05-27T08:30:45.658Z,320
2016-05-27T08:31:45.974Z,310
2016-05-27T08:32:45.976Z,315
2016-05-27T08:33:45.838Z,340
2016-05-27T08:34:50.091Z,345
2016-05-27T08:35:46.000Z,325
2016-05-27T08:36:45.862Z,340
2016-05-27T08:37:45.990Z,335
2016-05-27T08:38:46.023Z,345
2016-05-27T08:39:46.010Z,375
2016-05-27T08:40:46.029Z,380
2016-05-27T08:41:46.032Z,440
2016-05-27T08:42:46.034Z,455
2016-05-27T08:43:45.896Z,805
2016-05-27T08:44:45.759Z,1020
2016-05-27T08:45:46.073Z,775
2016-05-27T08:46:46.060Z,965
2016-05-27T08:47:46.063Z,915
2016-05-27T08:48:45.769Z,990
2016-05-27T08:49:46.678Z,975
2016-05-27T08:50:46.087Z,630
2016-05-27T08:51:45.949Z,835
2016-05-27T08:52:46.093Z,835
2016-05-27T08:53:46.095Z,765
2016-05-27T08:54:46.114Z,885
2016-05-27T08:55:45.959Z,955
2016-05-27T08:56:46.103Z,910
2016-05-27T08:57:45.965Z,910
2016-05-27T08:58:46.155Z,865
2016-05-27T08:59:46.127Z,885
2016-05-27T09:00:46.019Z,830
2016-05-27T09:01:46.242Z,870
2016-05-27T09:02:46.182Z,910
2016-05-27T09:03:46.169Z,880
2016-05-27T09:04:46.266Z,740
2016-05-27T09:05:46.190Z,560
2016-05-27T09:06:46.193Z,330
2016-05-27T09:07:46.196Z,250
2016-05-27T09:08:46.198Z,250
2016-05-27T09:09:46.232Z,240
2016-05-27T09:10:46.219Z,240
2016-05-27T09:11:46.221Z,235
2016-05-27T09:12:46.240Z,235
2016-05-27T09:13:46.226Z,230
2016-05-27T09:14:45.918Z,225
2016-05-27T09:15:46.076Z,225
2016-05-27T09:16:46.265Z,220
2016-05-27T09:17:46.097Z,220
2016-05-27T09:18:46.101Z,220
2016-05-27T09:19:48.243Z,215
2016-05-27T09:20:45.964Z,210
2016-05-27T09:21:46.279Z,205
2016-05-27T09:22:46.141Z,200
2016-05-27T09:23:46.145Z,195
2016-05-27T09:24:46.304Z,200
2016-05-27T09:25:46.322Z,200
2016-05-27T09:26:46.309Z,210
2016-05-27T09:27:46.170Z,215
2016-05-27T09:28:46.189Z,220
2016-05-27T09:29:46.333Z,215
2016-05-27T09:30:46.350Z,215
2016-05-27T09:31:46.338Z,210
2016-05-27T09:32:46.341Z,205
2016-05-27T09:33:46.202Z,200
2016-05-27T09:34:45.893Z,190
2016-05-27T09:35:46.239Z,185
2016-05-27T09:36:46.367Z,180
2016-05-27T09:37:46.229Z,175
2016-05-27T09:38:46.388Z,175
2016-05-27T09:39:46.078Z,175
2016-05-27T09:40:46.252Z,170
2016-05-27T09:41:46.427Z,170
2016-05-27T09:42:46.399Z,165
2016-05-27T09:43:46.401Z,170
2016-05-27T09:44:46.420Z,165
2016-05-27T09:45:48.626Z,170
2016-05-27T09:46:46.425Z,170
2016-05-27T09:47:46.271Z,165
2016-05-27T09:48:46.431Z,165
2016-05-27T09:49:46.479Z,160
2016-05-27T09:50:46.451Z,165
2016-05-27T09:51:46.126Z,165
2016-05-27T09:52:46.159Z,160
2016-05-27T09:53:46.162Z,160
2016-05-27T09:54:48.290Z,155
2016-05-27T09:55:46.481Z,155
2016-05-27T09:56:46.483Z,165
2016-05-27T09:57:46.486Z,180
2016-05-27T09:58:46.488Z,170
2016-05-27T09:59:46.492Z,170
2016-05-27T10:00:46.494Z,170
2016-05-27T10:01:46.512Z,165
2016-05-27T10:02:46.514Z,170
2016-05-27T10:03:46.517Z,165
2016-05-27T10:04:46.457Z,165
2016-05-27T10:05:46.523Z,160
2016-05-27T10:06:46.526Z,160
2016-05-27T10:07:46.544Z,155
2016-05-27T10:08:46.546Z,150
2016-05-27T10:09:46.549Z,145
2016-05-27T10:10:46.551Z,145
2016-05-27T10:11:46.570Z,155
2016-05-27T10:12:46.574Z,150
2016-05-27T10:13:46.576Z,150
2016-05-27T10:14:46.579Z,145
2016-05-27T10:15:46.424Z,150
2016-05-27T10:16:46.584Z,155
2016-05-27T10:17:46.602Z,145
2016-05-27T10:18:46.605Z,145
2016-05-27T10:19:46.623Z,145
2016-05-27T10:20:46.454Z,145
2016-05-27T10:21:46.440Z,140
2016-05-27T10:22:46.443Z,140
2016-05-27T10:23:46.634Z,145
2016-05-27T10:24:46.465Z,145
2016-05-27T10:25:46.623Z,145
2016-05-27T10:26:46.486Z,145
2016-05-27T10:27:46.629Z,150
2016-05-27T10:28:46.647Z,155
2016-05-27T10:29:46.681Z,150
2016-05-27T10:30:46.497Z,145
2016-05-27T10:31:46.655Z,145
2016-05-27T10:32:46.658Z,145
2016-05-27T10:33:46.661Z,140
2016-05-27T10:34:46.944Z,135
2016-05-27T10:35:46.525Z,140
2016-05-27T10:36:46.669Z,140
2016-05-27T10:37:46.687Z,150
2016-05-27T10:38:46.534Z,150
2016-05-27T10:39:46.693Z,155
2016-05-27T10:40:46.695Z,155
2016-05-27T10:41:46.699Z,155
2016-05-27T10:42:46.560Z,155
2016-05-27T10:43:46.719Z,155
2016-05-27T10:44:46.582Z,150
2016-05-27T10:45:46.709Z,140
2016-05-27T10:46:46.743Z,140
2016-05-27T10:47:46.729Z,140
2016-05-27T10:48:46.717Z,140
2016-05-27T10:49:47.437Z,140
2016-05-27T10:50:46.487Z,135
2016-05-27T10:51:46.757Z,135
2016-05-27T10:52:46.743Z,135
2016-05-27T10:53:46.792Z,140
2016-05-27T10:54:46.779Z,145
2016-05-27T10:55:46.626Z,145
2016-05-27T10:56:46.701Z,145
2016-05-27T10:57:46.699Z,145
2016-05-27T10:58:46.867Z,150
2016-05-27T10:59:47.020Z,150
2016-05-27T11:00:46.628Z,150
2016-05-27T11:01:46.780Z,150
2016-05-27T11:02:46.636Z,150
2016-05-27T11:03:46.976Z,150
2016-05-27T11:04:47.190Z,150
2016-05-27T11:05:47.375Z,150
2016-05-27T11:06:47.022Z,150
2016-05-27T11:07:46.700Z,145
2016-05-27T11:08:47.018Z,145
2016-05-27T11:09:46.899Z,145
2016-05-27T11:10:46.890Z,145
2016-05-27T11:11:46.878Z,150
2016-05-27T11:12:47.054Z,150
2016-05-27T11:13:46.900Z,155
2016-05-27T11:14:47.062Z,155
2016-05-27T11:15:46.909Z,150
2016-05-27T11:16:47.069Z,160
2016-05-27T11:17:47.056Z,165
2016-05-27T11:18:47.074Z,165
2016-05-27T11:19:48.515Z,165
2016-05-27T11:20:46.924Z,160
2016-05-27T11:21:47.115Z,160
2016-05-27T11:22:46.962Z,170
2016-05-27T11:23:46.777Z,170
2016-05-27T11:24:47.108Z,160
2016-05-27T11:25:46.831Z,150
2016-05-27T11:26:47.130Z,155
2016-05-27T11:27:47.117Z,165
2016-05-27T11:28:47.119Z,155
2016-05-27T11:29:46.982Z,160
2016-05-27T11:30:47.124Z,160
2016-05-27T11:31:47.143Z,170
2016-05-27T11:32:47.146Z,155
2016-05-27T11:33:47.148Z,170
2016-05-27T11:34:46.964Z,155
2016-05-27T11:35:47.013Z,160
2016-05-27T11:36:47.156Z,160
2016-05-27T11:37:47.191Z,150
2016-05-27T11:38:47.178Z,175
2016-05-27T11:39:47.181Z,165
2016-05-27T11:40:47.168Z,170
2016-05-27T11:41:47.029Z,170
2016-05-27T11:42:47.204Z,165
2016-05-27T11:43:47.192Z,150
2016-05-27T11:44:46.897Z,145
2016-05-27T11:45:47.197Z,160
2016-05-27T11:46:47.200Z,165
2016-05-27T11:47:47.045Z,160
2016-05-27T11:48:47.236Z,165
2016-05-27T11:49:47.754Z,155
2016-05-27T11:50:46.975Z,150
2016-05-27T11:51:47.089Z,155
2016-05-27T11:52:47.106Z,160
2016-05-27T11:53:47.093Z,175
2016-05-27T11:54:47.080Z,165
2016-05-27T11:55:47.099Z,155
2016-05-27T11:56:47.257Z,140
2016-05-27T11:57:47.244Z,140
2016-05-27T11:58:47.122Z,140
2016-05-27T11:59:47.109Z,135
2016-05-27T12:00:47.128Z,140
2016-05-27T12:01:47.271Z,140
2016-05-27T12:02:47.274Z,140
2016-05-27T12:03:47.307Z,135
2016-05-27T12:04:47.357Z,135
2016-05-27T12:05:47.282Z,135
2016-05-27T12:06:47.316Z,130
2016-05-27T12:07:47.318Z,130
2016-05-27T12:08:47.321Z,125
2016-05-27T12:09:47.151Z,135
2016-05-27T12:10:47.343Z,140
2016-05-27T12:11:47.157Z,145
2016-05-27T12:12:47.176Z,155
2016-05-27T12:13:47.053Z,150
2016-05-27T12:14:47.087Z,155
2016-05-27T12:15:47.356Z,155
2016-05-27T12:16:47.373Z,160
2016-05-27T12:17:47.189Z,155
2016-05-27T12:18:47.206Z,165
2016-05-27T12:19:48.070Z,160
2016-05-27T12:20:47.369Z,155
2016-05-27T12:21:47.386Z,145
2016-05-27T12:22:47.062Z,145
2016-05-27T12:23:47.236Z,130
2016-05-27T12:24:47.395Z,130
2016-05-27T12:25:47.414Z,125
2016-05-27T12:26:47.416Z,125
2016-05-27T12:27:47.106Z,130
2016-05-27T12:28:47.249Z,125
2016-05-27T12:29:47.393Z,125
2016-05-27T12:30:47.411Z,125
2016-05-27T12:31:47.429Z,125
2016-05-27T12:32:47.401Z,125
2016-05-27T12:33:47.279Z,130
2016-05-27T12:34:47.797Z,130
2016-05-27T12:35:47.457Z,130
2016-05-27T12:36:47.443Z,130
2016-05-27T12:37:47.430Z,140
2016-05-27T12:38:47.465Z,140
2016-05-27T12:39:47.451Z,140
2016-05-27T12:40:47.470Z,145
2016-05-27T12:41:47.348Z,145
2016-05-27T12:42:47.459Z,145
2016-05-27T12:43:47.321Z,145
2016-05-27T12:44:47.323Z,140
2016-05-27T12:45:47.467Z,140
2016-05-27T12:46:47.329Z,140
2016-05-27T12:47:47.473Z,135
2016-05-27T12:48:47.320Z,130
2016-05-27T12:49:48.165Z,130
2016-05-27T12:50:47.512Z,120
2016-05-27T12:51:47.515Z,115
2016-05-27T12:52:47.533Z,110
2016-05-27T12:53:47.630Z,105
2016-05-27T12:54:47.507Z,105
2016-05-27T12:55:47.525Z,100
2016-05-27T12:56:47.372Z,100
2016-05-27T12:57:47.531Z,105
2016-05-27T12:58:47.377Z,105
2016-05-27T12:59:47.067Z,100
2016-05-27T13:00:47.555Z,100
2016-05-27T13:01:47.573Z,105
2016-05-27T13:02:47.560Z,105
2016-05-27T13:03:47.577Z,110
2016-05-27T13:04:47.285Z,110
2016-05-27T13:05:47.568Z,110
2016-05-27T13:06:47.430Z,110
2016-05-27T13:07:47.418Z,120
2016-05-27T13:08:47.576Z,125
2016-05-27T13:09:47.594Z,130
2016-05-27T13:10:47.613Z,130
2016-05-27T13:11:47.585Z,130
2016-05-27T13:12:47.446Z,135
2016-05-27T13:13:47.637Z,145
2016-05-27T13:14:47.624Z,150
2016-05-27T13:15:47.610Z,165
2016-05-27T13:16:47.613Z,160
2016-05-27T13:17:47.631Z,170
2016-05-27T13:18:47.650Z,155
2016-05-27T13:19:48.293Z,150
2016-05-27T13:20:47.484Z,140
2016-05-27T13:21:47.642Z,130
2016-05-27T13:22:47.645Z,130
2016-05-27T13:23:47.647Z,130
2016-05-27T13:24:47.666Z,130
2016-05-27T13:25:47.653Z,135
2016-05-27T13:26:47.500Z,135
2016-05-27T13:27:47.658Z,140
2016-05-27T13:28:47.520Z,140
2016-05-27T13:29:47.523Z,145
2016-05-27T13:30:47.525Z,155
2016-05-27T13:31:47.685Z,160
2016-05-27T13:32:47.688Z,165
2016-05-27T13:33:47.691Z,175
2016-05-27T13:34:47.725Z,180
2016-05-27T13:35:47.539Z,180
2016-05-27T13:36:47.699Z,180
2016-05-27T13:37:47.544Z,180
2016-05-27T13:38:47.704Z,180
2016-05-27T13:39:47.721Z,175
2016-05-27T13:40:47.569Z,170
2016-05-27T13:41:47.727Z,165
2016-05-27T13:42:47.746Z,170
2016-05-27T13:43:47.732Z,165
2016-05-27T13:44:47.595Z,160
2016-05-27T13:45:47.628Z,155
2016-05-27T13:46:47.756Z,150
2016-05-27T13:47:47.759Z,135
2016-05-27T13:48:47.746Z,125
2016-05-27T13:49:48.234Z,120
2016-05-27T13:50:47.611Z,115
2016-05-27T13:51:47.614Z,120
2016-05-27T13:52:47.772Z,125
2016-05-27T13:53:47.775Z,125
2016-05-27T13:54:47.778Z,135
2016-05-27T13:55:47.780Z,145
2016-05-27T13:56:47.800Z,150
2016-05-27T13:57:47.817Z,150
2016-05-27T13:58:47.820Z,150
2016-05-27T13:59:47.808Z,145
2016-05-27T14:00:47.825Z,140
2016-05-27T14:01:47.672Z,130
2016-05-27T14:02:47.815Z,130
2016-05-27T14:03:47.833Z,125
2016-05-27T14:04:49.180Z,125
2016-05-27T14:05:47.823Z,130
2016-05-27T14:06:47.701Z,135